METARS
Date METAR Location Area
24/10/2014 LGY7 241530Z 18004KT 18/14 Q1001 Aegina Attica
24/10/2014 LGH5 241530Z 18004KT 17/14 Q1001 Ampelokipoi Attica
24/10/2014 LGS5 241530Z 15808G19KT 18/15 Q 996 Anavissos Attica
24/10/2014 LGO0 241530Z 13505KT 16/15 Q1002 Ano Liosia Attica
24/10/2014 LGB9 241530Z 20304KT 18/15 Q1003 Athens - Gazi Attica
24/10/2014 LGL5 241530Z 20306KT -RA 15/14 Q1001 Ekali Attica
24/10/2014 LGS3 241530Z 15806KT 19/15 Q1001 Faliro Attica
24/10/2014 LGI4 240100Z 00000G31104KT 154/74 Q10091 Hydra Attica
24/10/2014 LGM3 240730Z 20303KT 19/14 Q1008 Hydra Attica
20/10/2014 LGO2 200530Z 02305KT 09/06 Q1024 Imittos Attica
24/10/2014 LGT8 241530Z 15803G15KT -RA 13/12 Q1003 Ippokratios Attica
24/10/2014 LG99 241430Z 15806KT 16/14 Q1004 Kantza Attica
24/10/2014 LG13 241000Z 00000KT 14/12 Q1007 P0017 Kifissia Attica
24/10/2014 LGD6 241530Z 18017G29KT 18/16 Q1001 Lavrio Attica
24/10/2014 LGK0 241530Z 15802KT -RA 16/14 Q1002 Marousi Attica
24/10/2014 LG00 241510Z 11003KT 15/12 Q1001 P0001 Marousi (Anavrita) Attica
24/10/2014 LGR0 241530Z 11302KT 18/15 Q1002 Nea Smirni Attica
24/10/2014 LGM8 241430Z 13505KT 18/15 Q1004 Neos Kosmos Attica
24/10/2014 LGA3 241610Z 00000KT 15/13 Q1002 Pallini - Kantza 2 Attica
24/10/2014 LGK3 240930Z 18014KT -RA 08/08 Q1007 Parnitha 1230 EAA Attica
24/10/2014 LGT6 241530Z 22505KT 17/14 Q1002 Patissia Attica
24/10/2014 LGX9 241530Z 18009KT -RA 14/13 Q1000 Penteli Attica
24/10/2014 LG67 241100Z 1802592G18252KT +RA 160/142 Q10052 Penteli Attica
24/10/2014 LGU0 241530Z 20310KT 17/14 Q1002 Peristeri Attica
24/10/2014 LGY6 241530Z 20306G17KT 17/15 Q1002 Porto Rafti Attica
24/10/2014 LG96 241530Z 20303KT 16/14 Q1002 Psychico Attica
24/10/2014 LGZ0 241530Z 13515KT 17/15 Q1001 Rafina Attica
24/10/2014 LGG2 241530Z 20308KT 17/14 Q1001 Spata Attica
24/10/2014 LGS6 241530Z 24808KT 19/11 Q1002 Spetses Attica
24/10/2014 LGZ2 241530Z 15808KT 18/15 Q1002 Vari Attica
24/10/2014 LGR6 241530Z 06801KT 12/11 Q1002 Vilia Attica
22/10/2014 LG74 212300Z 00000KT 177/144 Q10104 Ymittos Attica
24/10/2014 LGG1 241600Z 2029558G19116KT 172/137 Q145 Kalivia Thorikou Attica E
24/10/2014 LG45 241530Z 20312G23KT 17/15 Q1004 Markopoulo Attica E
24/10/2014 LG72 240310Z 00000KT 128/81 Q10061 Keratea Attica SE
24/10/2014 LGW4 240730Z 13501KT 15/11 Q1008 Ag. Ioannis Sfakion Crete
24/10/2014 LGJ9 241530Z 18015KT 21/15 Q1007 Aghios Nikolaos Crete
24/10/2014 LGT4 241530Z 29310KT -RA 19/15 Q1006 Alikianos Crete
24/10/2014 LGB6 241530Z 22508G23KT -RA 15/11 Q1003 Anogeia Crete
06/10/2014 LGZ6 060730Z 18006KT 19/16 Q1023 Askyfou Crete
24/10/2014 LG25 241530Z 24816KT -RA 18/16 Q1005 Chania Crete
24/10/2014 LGN3 241530Z 29308G20KT -RA 19/15 Q1006 Chania Center Crete
24/10/2014 LG61 241530Z 20310G21KT 20/16 Q1005 Cost - Irakleio Crete
24/10/2014 LGL9 241530Z 27016KT 19/17 Q1005 Falasarna Crete
24/10/2014 LG9A 241530Z 20313KT 21/12 Q1006 Finokalia - Lasithi Crete
24/10/2014 LGL1 241530Z 15817G30KT -RA 17/15 Q1006 Fourfouras Crete
30/09/2014 LGD4 300730Z 33807KT 26/15 Q1012 Fragmapotamon - Rethymno Crete
24/10/2014 LG30 241530Z 22513KT 20/15 Q1006 Heraklion - Knossos Crete
24/10/2014 LG95 241530Z 20304KT -RA 21/17 Q1009 Ierapetra Crete
24/10/2014 LGP0 241530Z 20304KT 21/17 Q1008 Lentas Hrakleion Crete
24/10/2014 LGD7 241430Z 20305KT -RA 16/14 Q1008 Metaxochori - Heraklion Crete
24/10/2014 LGI2 240830Z 06801KT 20/17 Q1010 Mires Crete
24/10/2014 LG36 241530Z 29310KT +RA 19/16 Q1005 Paleochora Crete
24/10/2014 LG8A 241530Z 22512KT 18/15 Q1002 Pirathi Heraklion Crete
24/10/2014 LG58 241530Z 20309KT -RA 20/16 Q1004 Rethymno Crete
24/10/2014 LGT2 241530Z 20308KT -RA 22/19 Q1005 Rethymno - Plakia Crete
24/10/2014 LGB4 241530Z 29301KT 11/10 Q1006 Samaria Crete
24/10/2014 LGY1 241030Z 09004G23KT +RA 16/14 Q1009 Samaria Crete
24/10/2014 LGM2 241530Z 22507KT 21/15 Q1007 Sitia Crete
24/10/2014 LG75 241530Z 22507KT 17/15 Q1007 Spili - Rethymnon Crete
24/10/2014 LG50 241530Z 00004KT -RA 15/12 Q1007 Tzermiado Lasithi Crete
24/10/2014 LG70 241530Z 24803KT 17/15 Q1004 Vrysses Crete
24/10/2014 LGT5 241530Z 13505G18KT 21/15 Q1006 Amorgos Cyclades
24/10/2014 LGN6 241530Z 13518G29KT -RA 18/16 Q1004 Andros Cyclades
24/10/2014 LGS7 241430Z 15804KT 18/17 Q1006 Donoussa Cyclades
24/10/2014 LGI0 241530Z 13513KT 19/16 Q1006 Ios Cyclades
24/10/2014 LGP2 240830Z 15808KT 16/12 Q1010 Ioulida - Kea Cyclades
24/10/2014 LGP5 241530Z 13501KT 18/16 Q1005 Iraklia Cyclades
24/10/2014 LGE3 241330Z 18013G31KT 18/15 Q1005 Kea Cyclades
24/10/2014 LGX8 241530Z 00000KT 18/16 Q1006 Koufonissia Cyclades
24/10/2014 LGS0 241530Z 13503KT -RA 17/15 Q1006 Milos Cyclades
24/10/2014 LG66 241530Z 18006KT 19/15 Q1005 Mykonos Cyclades
24/10/2014 LGM0 241530Z 15806KT 18/15 Q1006 Naxos Cyclades
24/10/2014 LGV3 241530Z 29308KT RA 06/05 Q1004 Naxos - Apiranthos Cyclades
08/10/2014 LGT0 080930Z 31507KT 22/19 Q1020 Naxos - Apollonas Cyclades
24/10/2014 LGU1 241530Z 15803KT 17/14 Q1006 Naxos - Damarionas Cyclades
24/10/2014 LGU2 241530Z 18005KT 15/13 Q1006 Naxos - Koronos Cyclades
24/10/2014 LGN7 241530Z 11305KT 17/14 Q1006 Naxos - Kynidaros Cyclades
24/10/2014 LGW1 241530Z 22503KT 19/14 Q1005 Naxos - Melanes Cyclades
09/10/2014 LGO7 091330Z 00017KT 26/20 Q1012 Naxos - Mikri Vigla Cyclades
24/10/2014 LG02 241530Z 15811KT 19/16 Q1006 Paros Cyclades
24/10/2014 LGX5 241530Z 20308KT 19/15 Q1004 Santorini Cyclades
24/10/2014 LGX7 241530Z 13502KT 17/15 Q1006 Schinoussa Cyclades
07/07/2014 LG07 070630Z 00000KT 255/97 Q10099 Tinos Cyclades
24/10/2014 LGB8 241530Z 18004KT 19/16 Q1006 Tinos NOA Cyclades
24/10/2014 LGAB 241530Z 18014G27KT 18/14 Q1008 Emponas - Rhodes Dodecanese
24/10/2014 LGG6 241530Z 09006G17KT 22/17 Q1008 Kalymnos Dodecanese
24/10/2014 LGAC 241430Z 22511G24KT 21/16 Q1009 Kattavia - Rhodes Dodecanese
21/10/2014 LGAA 210730Z 13503KT 23/10 Q1015 Lindos - Rhodes Dodecanese
24/10/2014 LG65 241530Z 15807KT 17/15 Q1007 Patmos Dodecanese
24/10/2014 LGS9 241530Z 20308G23KT RA 20/17 Q1010 Rhodes Dodecanese
24/10/2014 LGM5 241530Z 18006G17KT 22/18 Q1007 Kasos Dodecanisa
24/10/2014 LGX1 241530Z 15802KT 20/16 Q1008 Kos Dodekanissa
24/10/2014 LG4A 241530Z 15802KT -RA 17/15 Q1007 Chios East Aegean
20/10/2014 LGT1 200630Z 31511G26KT 16/09 Q1019 Fournoi East Aegean
24/10/2014 LGI9 241530Z 15810KT 14/13 Q1004 Ikaria East Aegean
24/10/2014 LGI5 241530Z 06810KT -RA 16/14 Q1005 Lemnos East Aegean
24/10/2014 LGI6 241530Z 18001KT RA 18/14 Q1006 Lesvos East Aegean
24/10/2014 LGJ3 241530Z 22504KT RA 18/14 Q1010 Lesvos - Thermi East Aegean
20/10/2014 LGZ7 201430Z 33807KT 18/07 Q1018 Mantamados East Aegean
24/10/2014 LGY5 241530Z 09004G16KT RA 15/12 Q1009 Molyvos East Aegean
24/10/2014 LGF1 241530Z 11303KT RA 17/15 Q1007 Samos East Aegean
24/10/2014 LGW7 241530Z 15838G51KT 16/14 Q 997 Akrotirio Paksimada Evia
24/10/2014 LGO3 241030Z 13510KT -RA 15/13 Q1004 Chalkida Evia
24/10/2014 LGR5 241030Z 15817KT -RA 14/13 Q1005 Kavodoro Evia
09/10/2014 LGY0 090700Z 11300KT 09/05 Q1034 Krieza Evia
24/10/2014 LGX0 241530Z 15801KT +RA 13/12 Q1004 Kymi Evia
25/09/2014 LGT7 251000Z 27004KT 09/07 Q1011 Setta Evia
24/10/2014 LG81 241530Z 27001KT RA 12/11 Q1002 Steni Evia
24/10/2014 LGC4 241530Z 15816KT RA 17/15 Q1002 Styra Evia
24/10/2014 LGD3 241530Z 13508G20KT 17/14 Q1002 Zarakes Evia
24/10/2014 LGP6 241530Z 27000KT -RA 08/07 Q1006 Agia Kyriaki Ioanninon Hepirus
24/10/2014 LGO1 241530Z 02301KT -RA 11/09 Q1008 Aridaia Hepirus
24/10/2014 LGD2 240430Z 11303KT 13/10 Q1003 Arta - Kompoti Hepirus
24/10/2014 LG38 241530Z 02301KT -RA 13/11 Q1004 Arta - Vlacherna Hepirus
19/10/2014 LGE4 191130Z 13504KT 19/07 Q1024 Aspraggeloi Hepirus
24/10/2014 LGI3 241530Z 06801KT 08/07 Q1004 Derviziana Hepirus
24/10/2014 LGP4 241530Z 11301KT -RA 07/06 Q1004 Dodoni Hepirus
02/10/2014 LGL8 021430Z 02304KT 24/07 Q1015 Grammos Hepirus
24/10/2014 LG43 241530Z 06808KT 14/07 Q1002 Igoumenitsa Hepirus
24/10/2014 LG49 241530Z 00000KT -RA 08/08 Q1003 Ioannina Anatoli Hepirus
24/10/2014 LGK1 241530Z 06804KT 13/10 Q1003 Kanali, Preveza Hepirus
24/10/2014 LGE0 241530Z 00000KT -RA 07/06 Q1005 Katarraktis - Arta Hepirus
24/10/2014 LGO5 241530Z 15803KT -RA 04/02 Q1006 Kerasovo Konitsa Hepirus
24/10/2014 LG3A 241530Z 15801KT -RA 07/06 Q1007 Konitsa Hepirus
24/10/2014 LGO8 241530Z 31505KT -RA 03/02 Q1006 Metsovo Hepirus
24/10/2014 LGK6 241530Z 00000KT -RA 04/04 Q1008 Papigo Hepirus
24/10/2014 LGF6 241530Z 06806KT 07/06 Q1005 Paramythia Hepirus
24/10/2014 LGK9 241530Z 11301KT 16/11 Q1004 Parga Hepirus
24/10/2014 LGK7 241230Z 11301KT 08/07 Q1005 Pesta Hepirus
24/10/2014 LGY9 240430Z 00000KT -SN 00/M01 Q1032 Plikati Ioanninon Hepirus
24/10/2014 LGP1 241530Z 27001KT -RA 06/05 Q1006 Pramanta Hepirus
24/10/2014 LGK2 241430Z 02300KT RA 05/04 Q1006 Theodoriana, Arta Hepirus
24/10/2014 LGD0 241330Z 04502KT -RA 06/03 Q1004 Tristeno - Ioannina Hepirus
24/10/2014 LGM4 241530Z 02301KT 09/08 Q1004 Tyria Hepirus
24/10/2014 LGR8 241530Z 00001KT -RA 07/06 Q1004 Vourgareli Artas Hepirus
24/10/2014 LGN9 241430Z 00000KT -RA 03/02 Q1008 Vovoussa Hepirus
23/10/2014 LGN0 231230Z 24801KT 10/09 Q1002 Zitsa Hepirus
24/10/2014 LGJ2 241530Z 24804KT RA 12/10 Q1004 Corfu - Gouvia Ionio
24/10/2014 LGB0 241530Z 00000KT 14/12 Q1003 Ithaki Ionio
24/10/2014 LGI7 241530Z 09006KT 15/13 Q1004 Lefkada Ionio
24/10/2014 LGN1 241530Z 11300KT 15/11 Q1002 Paxoi Ionio
24/10/2014 LGN4 241530Z 24801KT RA 13/11 Q1003 Zakynthos Ionio
24/10/2014 LGG9 241530Z 00003KT -RA 04/03 Q1007 Amynteo Macedonia
24/10/2014 LG33 241530Z 11321G36KT +RA 11/10 Q1003 Chalkidiki - Polygyros Macedonia
24/10/2014 LGJ1 241530Z 06817G29KT RA 16/14 Q1007 Chalkidiki - Stratoni Macedonia
24/10/2014 LGZ5 241530Z 04505KT 17/13 Q1011 Didymoteicho Macedonia
24/10/2014 LG55 241430Z 27005KT +RA 10/10 Q1005 Dion Macedonia
24/10/2014 LGU8 241530Z 06803KT 16/09 Q1008 Doxato - Drama Macedonia
24/10/2014 LGH3 241550Z 08905KT 16/09 Q1008 Drama Macedonia
24/10/2014 LGH6 241530Z 06810KT 16/09 Q1007 Drama 2 Macedonia
24/10/2014 LGY3 241530Z 11301KT -RA 15/11 Q1008 Eleutheroupoli Macedonia
27/09/2014 LGJ6 272050Z 15916G27KT 02/02 Q1009 Falakro Macedonia
24/10/2014 LG63 241530Z 33805KT RA 05/04 Q1012 Florina Macedonia
24/10/2014 LGZ8 241530Z 06812KT 16/10 Q1008 Fotolivos Macedonia
24/10/2014 LG73 241530Z 24803KT RA 10/10 Q1006 Giannitsa Macedonia
24/10/2014 LGF2 241530Z 24800KT -RA 07/06 Q1006 Grevena Macedonia
24/10/2014 LGO4 241530Z 06802KT RA 06/06 Q1007 Hmathia - Rizomata Macedonia
24/10/2014 LG93 240830Z 06812KT -SN M04/M04 Q1012 Kaimaktsalan Macedonia
27/09/2014 LGN8 272050Z 19217G43KT 32/29 Q979 Kartakla - Falakro Macedonia
24/10/2014 LGO9 241530Z 09015KT RA 15/14 Q1002 Kassandreia (Xalkidiki) Macedonia
24/10/2014 LG27 241550Z 10207KT 16/09 Q1008 Kavala - Dexameni Macedonia
05/10/2014 LGA2 052147Z 00000KT 01/00 Q1022 Kavala - Eleftheroupoli Macedonia
24/10/2014 LG42 241530Z 27003KT 09/08 Q1006 Kilkis Macedonia
24/10/2014 LGW8 241530Z 02309KT 12/08 Q1008 Kimisi Macedonia
24/10/2014 LGJ4 241530Z 20303KT RA 05/05 Q1011 Kozani - Ardassa Macedonia
24/10/2014 LGP3 241530Z 20305G16KT 03/01 Q1009 Lailias - Serres Macedonia
24/10/2014 LGZ9 241530Z 29304KT -RA 05/04 Q1008 Mavropigi Macedonia
24/10/2014 LG40 241530Z 29302KT RA 10/08 Q1008 Naousa Macedonia
24/10/2014 LGZ4 241530Z 06812G23KT +RA 15/13 Q1002 Neos Marmaras Macedonia
24/10/2014 LG48 241530Z 02303KT 11/06 Q 0 Nevrokopi Drama Macedonia
24/10/2014 LGS4 241530Z 31506KT -RA 04/03 Q1006 Notio Pedio - Eordea Macedonia
23/10/2014 LGW0 230930Z 15804KT RA 20/17 Q 997 Paranesti Macedonia
24/10/2014 LG26 241530Z 31505KT RA 05/04 Q1006 Ptolemaida Macedonia
24/10/2014 LG87 241530Z 00006KT SN 02/02 Q1008 Seli Ski Center Macedonia
24/10/2014 LGW6 241530Z 31502KT -RA 12/10 Q1008 Serres Macedonia
24/10/2014 LGD9 241530Z 27000KT -RA 13/09 Q1008 Serres - Kerkini Macedonia
24/10/2014 LG14 240400Z 00000G31104KT 61/48 Q10122 Serres - Proti Macedonia
07/10/2014 LGY8 071419Z 31505KT 9999 SCT036 10/00 Q1010 Thassos Macedonia
24/10/2014 LGR9 241530Z 04507KT -RA 13/11 Q1005 Thessaloniki Macedonia
24/10/2014 LGF0 241530Z 06800KT RA 05/04 Q1007 Variko Macedonia
02/10/2014 LG82 020930Z 22510G21KT 11/09 Q1003 Vassilitsa Macedonia
24/10/2014 LGC2 241530Z 09008KT RA 15/13 Q1004 Vatopedi - Athos Macedonia
24/10/2014 LGE9 241530Z 00000KT RA 08/07 Q1009 Vegoritida Macedonia
24/10/2014 LGE5 241530Z 22500KT +RA 10/10 Q1003 Veroia Macedonia
24/10/2014 LG98 241530Z 13509G23KT RA 03/02 Q1007 Vlasti - Kozani Macedonia
24/10/2014 LGF5 241601Z 11605KT 08/07 Q1009 Vounochori - Kavala Macedonia
24/10/2014 LGU5 241530Z 00000KT 16/14 Q1001 Agioi Theodoroi Peloponissos
24/10/2014 LGU7 241530Z 31506KT 09/07 Q1004 Alagonia - Messinia Peloponissos
24/10/2014 LG52 241530Z 13506KT 12/11 Q1002 Amaliada Peloponissos
18/10/2014 LG77 181700Z 00016KT 22/14 Q1016 Andritsaina Peloponissos
24/10/2014 LGU6 241530Z 33802KT -RA 13/10 Q1006 Arfara - Messinia Peloponissos
24/10/2014 LGT3 241530Z 24803KT 16/13 Q1003 Argos Peloponissos
17/10/2014 LGA8 172100Z 00000KT 00/00 Q 0 Chalandritsa Peloponissos
24/10/2014 LGV0 241530Z 18003KT -RA 14/12 Q1002 Derveni Peloponissos
28/09/2014 LGK4 280630Z 15801KT -RA 03/02 Q1021 Elati Peloponissos
24/10/2014 LGC3 241530Z 11302KT -RA 08/07 Q1003 Foloi - Ilia Peloponissos
24/10/2014 LGX6 241530Z 18005KT 15/11 Q1004 Geraki Peloponissos
24/10/2014 LGB7 241530Z 33804KT RA 13/03 Q1004 Ilia - Vartholomio Peloponissos
24/10/2014 LG85 241330Z 24800KT 16/14 Q1002 Isthmos Peloponissos
24/10/2014 LG6A 241530Z 29301KT 16/11 Q1005 Kalamata Peloponissos
24/10/2014 LGV7 241530Z 18001KT RA 08/07 Q1004 Kalavryta Peloponissos
23/10/2014 LGZ3 232030Z 09002KT 15/08 Q1010 Kardamyli Peloponissos
24/10/2014 LGJ5 241530Z 15816KT -RA 16/13 Q1003 Katakolo Peloponissos
24/10/2014 LGP7 241530Z 00001KT -RA 07/06 Q1004 Kato Vlassia Peloponissos
27/09/2014 LGB2 272000Z 20301KT 27/23 Q1011 Katoachaia Peloponissos
19/10/2014 LGB5 191030Z 00015G31KT 20/12 Q1022 Kavomalias Peloponissos
21/10/2014 LGM7 210730Z 15801KT 22/11 Q1015 Kranidi Peloponissos
24/10/2014 LGV1 241530Z 09001KT 13/12 Q1005 Kyparissia Peloponissos
24/10/2014 LGW9 241530Z 18002KT RA 06/05 Q1005 Lagadia Peloponissos
24/10/2014 LG92 241230Z 33800KT 14/13 Q1001 Lappa-Larissos-Achaia Peloponissos
07/10/2014 LG91 070630Z 00000KT 21/15 Q1012 Lousika-Olenias-Achaia Peloponissos
24/10/2014 LGV4 241530Z 20313KT 14/13 Q1007 Lykochia Peloponissos
24/10/2014 LGG5 241530Z 31504KT -RA 10/09 Q1006 Megalopoli Peloponissos
24/10/2014 LGV2 241530Z 22501KT -RA 12/10 Q1006 Messinia - Kopanaki Peloponissos
24/10/2014 LGF8 241530Z 20307KT 17/12 Q1003 Molaoi Peloponissos
24/10/2014 LG56 241530Z 20312G23KT 18/13 Q1003 Monemvasia Peloponissos
24/10/2014 LGE1 241530Z 15800KT 13/12 Q1001 Nemea Peloponissos
24/10/2014 LGD5 241530Z 11301KT 11/09 Q1004 Oleni - Ilia Peloponissos
24/10/2014 LGB3 241530Z 18001KT -RA 12/11 Q1004 Olympia Peloponissos
24/10/2014 LGV6 241530Z 27010KT -SN 02/02 Q1004 Panachaiko Oros Peloponissos
24/10/2014 LGZ1 241530Z 22504KT -RA 13/10 Q1002 Patra Peloponissos
23/10/2014 LG79 232005Z 00000KT 150/94 Q10088 Patra - Agia Peloponissos
24/10/2014 LG71 241500Z 1572592G7830KT 132/111 Q10035 Patra - Drosia Peloponissos
24/10/2014 LG84 241530Z 00000KT -SN 00/00 Q 0 Patra - Port Peloponissos
24/10/2014 LG59 241530Z 11303KT 13/12 Q1003 Pirgos Peloponissos
23/10/2014 LGH8 231830Z 18003KT 14/09 Q1009 Rio Peloponissos
24/10/2014 LGT9 241530Z 13501KT -RA 12/09 Q1003 Romanos - Patra Peloponissos
16/10/2014 LGA0 162330Z 18005KT 22/20 Q1017 Sagaiika Peloponissos
24/10/2014 LGF7 241530Z 29305KT -RA 14/11 Q1004 Sparti Peloponissos
24/10/2014 LGS2 241530Z 22501KT RA 05/05 Q1006 Stemnitsa Peloponissos
24/10/2014 LGR1 241530Z 18003KT 07/07 Q1001 Trikala Korinthias Peloponissos
24/10/2014 LG83 241530Z 24803G14KT -RA 09/07 Q1006 Tripoli Peloponissos
24/10/2014 LGU9 241530Z 20302KT RA 06/05 Q1005 Vytina Peloponissos
24/10/2014 LG86 241530Z 06801KT -RA 12/11 Q1004 Zaxaro Peloponissos
24/10/2014 LGN2 241530Z 09006KT 16/14 Q1004 Alonissos Sporades
24/10/2014 LGI1 241530Z 13515KT 18/15 Q1002 Skyros Sporades
24/10/2014 LGH9 241530Z 00000KT -RA 13/12 Q1005 Agrinio Sterea Ellada
22/10/2014 LGC7 222330Z 13507KT 20/18 Q 999 Aitoliko Sterea Ellada
24/10/2014 LG29 241530Z 00000KT -RA 12/11 Q1002 Amfiklia Sterea Ellada
24/10/2014 LGH1 241200Z 00000G31104KT +RA 103/87 Q10053 Amfiklia 2 Sterea Ellada
24/10/2014 LGG8 241530Z 27010KT -RA 12/11 Q1004 Antikira Sterea Ellada
24/10/2014 LG97 241615Z 00000KT 08/06 Q1002 P0007 Arachova Sterea Ellada
24/10/2014 LGC5 241530Z 04503KT -RA 08/06 Q1005 Arahova Sterea Ellada
20/10/2014 LGH0 202330Z 24803KT 12/08 Q1016 Avlida Sterea Ellada
24/10/2014 LGR2 241530Z 27005KT RA 11/09 Q1003 Dam of Mornos Sterea Ellada
24/10/2014 LGR3 241530Z 00000KT RA 10/09 Q1004 Diakopi of Lidoriki Sterea Ellada
24/10/2014 LGW5 241530Z 29304KT -RA 06/06 Q1003 Domokos Sterea Ellada
14/10/2014 LG21 141323Z 24804KT 29/15 Q1014 Evia - Chalkida Sterea Ellada
24/10/2014 LGY4 241530Z 31502KT -RA 13/12 Q1003 Galaxidi Sterea Ellada
24/10/2014 LGC8 241600Z 00000KT 131/119 Q10029 Gavalou - Aitol/nia Sterea Ellada
24/10/2014 LGJ7 241530Z 00000KT 12/11 Q1003 Kaparelli Sterea Ellada
24/10/2014 LGC9 241530Z 00000KT -RA 09/08 Q1004 Karpenisi Sterea Ellada
24/10/2014 LGP9 241530Z 04500KT 13/12 Q1000 Kleidi Viotias Sterea Ellada
24/10/2014 LGR4 241530Z 22502KT RA 08/07 Q1004 Koniakos of Lidoriki Sterea Ellada
24/10/2014 LG5A 241530Z 31502KT 13/12 Q1002 Kopaida Sterea Ellada
24/10/2014 LGV9 241430Z 31503KT -RA 12/11 Q1002 Lamia Sterea Ellada
18/10/2014 LGJ8 182130Z 04501KT 21/13 Q1021 Lefkochori Sterea Ellada
23/10/2014 LGI8 230730Z 24817KT 19/10 Q1000 Livadeia Sterea Ellada
24/10/2014 LGE7 241530Z 04503KT 11/09 Q1001 Makrakomi Sterea Ellada
24/10/2014 LGA6 241530Z 00000KT -RA 06/05 Q1002 Mavrolithari - Vardousia Sterea Ellada
21/10/2014 LGK8 212330Z 22502KT 09/09 Q1010 Myriki Sterea Ellada
24/10/2014 LGG4 241530Z 00000KT RA 08/06 Q1003 Orini Nafpaktia Sterea Ellada
01/10/2014 LGA4 010700Z 09009KT -SN 02/M02 Q1009 Parnassos Sterea Ellada
18/10/2014 LGF9 181700Z 00016G27KT 13/05 Q1018 Parnassos1950 Sterea Ellada
21/10/2014 LGL0 210530Z 00000KT 06/04 Q1017 Polydroso Sterea Ellada
07/10/2014 LGR7 071230Z 04508KT 11/09 Q1025 Prasino - Viotia Sterea Ellada
24/10/2014 LG69 241530Z 09003KT 13/11 Q1002 Tanagra Sterea Ellada
24/10/2014 LGO6 241530Z 22500KT 15/14 Q1002 Theologos Sterea Ellada
24/10/2014 LG94 241530Z 00000KT +RA 95/95 Q10056 Hortiatis Thes/niki
24/10/2014 LG15 241614Z 04510KT 14/05 Q1005 Kamara Thes/niki Thes/niki
18/10/2014 LGA5 181700Z 31500KT 18/14 Q1017 Lagadas Thes/niki
24/10/2014 LG11 240730Z 12901KT 10/06 Q1006 West Thes/niki Thes/niki
24/10/2014 LGV5 241430Z 33809KT -RA 09/07 Q1004 Tsamantas Thesprotia
24/10/2014 LGL4 241530Z 20300KT -SN 02/02 Q1008 Gardiki Thessalia
24/10/2014 LGW3 241230Z 27003KT -RA 08/06 Q1005 Kalabaka Thessalia
24/10/2014 LG2A 241530Z 29309KT -RA 09/08 Q1004 Karditsa Thessalia
24/10/2014 LGL6 241530Z 33800KT -RA 11/10 Q1003 Larissa Thessalia
24/10/2014 LG41 241550Z 2921728G6102KT +RA 112/105 Q10024 Larissa Thessalia
24/10/2014 LGU3 241350Z 337864G2592KT +RA 114/103 Q10027 Larissa Thessalia
24/10/2014 LGS8 241530Z 27000KT RA 11/10 Q1003 Larissa - Agia Thessalia
28/09/2014 LGL7 282130Z 24812KT 16/05 Q1014 Limni Plastira Thessalia
26/09/2014 LGU4 260700Z 29304KT 04/M07 Q1013 Olympos Thessalia
24/10/2014 LG7A 241600Z 3373456G11286KT 126/110 Q10012 Pedio Areos Volou Thessalia
24/10/2014 LGE2 241530Z 09001KT -RA 03/02 Q1004 Pertouli Thessalia
24/10/2014 LGY2 241530Z 15801KT -RA 11/09 Q1001 Portaria - Pelio Thessalia
24/10/2014 LG80 241530Z 20301KT 16/14 Q1003 Skopelos - Sporades Thessalia
24/10/2014 LG24 241530Z 29310KT RA 15/13 Q1001 Sporades - Skiathos Thessalia
24/10/2014 LG57 241530Z 29304KT -RA 09/08 Q1004 Trikala Thessalia
24/10/2014 LG51 241530Z 27002KT -RA 13/12 Q1001 Volos Thessalia
24/10/2014 LGG3 241530Z 27003KT 10/09 Q1004 Zagora EAA Thessalia
24/10/2014 LGD8 241530Z 04511KT 15/12 Q1008 Alexandroupolis Thraki
24/10/2014 LGM9 241530Z 04507KT 16/11 Q1007 Imeros Thraki
09/10/2014 LG35 091750Z 33604KT 23/15 Q1013 Komotini Thraki
24/10/2014 LGL2 241530Z 00001KT 15/12 Q1012 Metaxades - Evros Thraki
24/10/2014 LG31 241530Z 02301KT 16/11 Q1010 Orestiada Thraki
24/10/2014 LGC1 241530Z 09001G12KT -RA 17/11 Q1008 Samothraki Thraki
23/10/2014 LGC6 230330Z 18010G21KT 20/18 Q 999 Xanthi Thraki
www.meteorologia.gr